Antrim, New Hampshire
Current Conditions -  °F | °C
As of 9:52 PM on Saturday 25 Oct 2014 (Local Time) from KAFN Reporting Station
Overcast Overcast  
Wind Chill: 10°   Ceiling: 7000
Heat Index: 10°   Visibility: 10mi
Dew Point:   Wind: 0mph
Humidity: 80%   Direction: NA
Pressure: 29.53"   Gusts: NA
Location:  43.03°N, 71.95°W
Report Text: KAFN 260152Z AUTO 00000KT 10SM OVC070 10/07 A2953 RMK AO2 SLP008 T01000067
Loading
Personal Weather Stations






























Interactive Weather Map
Tropical Storm Tracking
New forecast layout! Learn more

10-Day Weather Forecast

Advertisements
Track Severe Weather on mobile